sensor_id;sensor_type;location;lat;lon;timestamp;temperature;humidity
13336;DHT22;6737;51.480;11.962;2023-05-09T00:01:59;10.00;99.90
13336;DHT22;6737;51.480;11.962;2023-05-09T00:04:25;10.00;99.90
13336;DHT22;6737;51.480;11.962;2023-05-09T00:06:51;10.00;99.90
13336;DHT22;6737;51.480;11.962;2023-05-09T00:09:17;10.00;99.90
13336;DHT22;6737;51.480;11.962;2023-05-09T00:11:43;9.90;99.90
13336;DHT22;6737;51.480;11.962;2023-05-09T00:14:09;9.90;99.90
13336;DHT22;6737;51.480;11.962;2023-05-09T00:16:37;9.90;99.90
13336;DHT22;6737;51.480;11.962;2023-05-09T00:19:03;9.80;99.90
13336;DHT22;6737;51.480;11.962;2023-05-09T00:21:29;9.80;99.90
13336;DHT22;6737;51.480;11.962;2023-05-09T00:23:55;9.80;99.90
13336;DHT22;6737;51.480;11.962;2023-05-09T00:26:21;9.80;99.90
13336;DHT22;6737;51.480;11.962;2023-05-09T00:28:47;9.90;99.90
13336;DHT22;6737;51.480;11.962;2023-05-09T00:31:13;9.90;99.90
13336;DHT22;6737;51.480;11.962;2023-05-09T00:33:39;9.80;99.90
13336;DHT22;6737;51.480;11.962;2023-05-09T00:36:05;9.80;99.90
13336;DHT22;6737;51.480;11.962;2023-05-09T00:38:31;9.80;99.90
13336;DHT22;6737;51.480;11.962;2023-05-09T00:40:57;9.80;99.90
13336;DHT22;6737;51.480;11.962;2023-05-09T00:43:22;9.80;99.90
13336;DHT22;6737;51.480;11.962;2023-05-09T00:45:48;9.70;99.90
13336;DHT22;6737;51.480;11.962;2023-05-09T00:48:15;9.70;99.90
13336;DHT22;6737;51.480;11.962;2023-05-09T00:50:41;9.70;99.90
13336;DHT22;6737;51.480;11.962;2023-05-09T00:53:08;9.70;99.90
13336;DHT22;6737;51.480;11.962;2023-05-09T00:55:34;9.60;99.90
13336;DHT22;6737;51.480;11.962;2023-05-09T00:58:01;9.50;99.90
13336;DHT22;6737;51.480;11.962;2023-05-09T01:00:28;9.30;99.90
13336;DHT22;6737;51.480;11.962;2023-05-09T01:02:54;9.40;99.90
13336;DHT22;6737;51.480;11.962;2023-05-09T01:05:23;9.30;99.90
13336;DHT22;6737;51.480;11.962;2023-05-09T01:08:12;9.40;99.90
13336;DHT22;6737;51.480;11.962;2023-05-09T01:11:00;9.40;99.90
13336;DHT22;6737;51.480;11.962;2023-05-09T01:13:48;9.30;99.90
13336;DHT22;6737;51.480;11.962;2023-05-09T01:16:30;9.30;99.90
13336;DHT22;6737;51.480;11.962;2023-05-09T01:21:40;9.20;99.90
13336;DHT22;6737;51.480;11.962;2023-05-09T01:29:37;9.30;99.90
13336;DHT22;6737;51.480;11.962;2023-05-09T01:32:10;9.30;99.90
13336;DHT22;6737;51.480;11.962;2023-05-09T01:34:40;9.30;99.90
13336;DHT22;6737;51.480;11.962;2023-05-09T01:37:08;9.30;99.90
13336;DHT22;6737;51.480;11.962;2023-05-09T01:39:38;9.30;99.90
13336;DHT22;6737;51.480;11.962;2023-05-09T01:42:08;9.30;99.90
13336;DHT22;6737;51.480;11.962;2023-05-09T01:44:40;9.30;99.90
13336;DHT22;6737;51.480;11.962;2023-05-09T01:47:07;9.30;99.90
13336;DHT22;6737;51.480;11.962;2023-05-09T01:49:36;9.30;99.90
13336;DHT22;6737;51.480;11.962;2023-05-09T01:52:09;9.20;99.90
13336;DHT22;6737;51.480;11.962;2023-05-09T01:54:37;9.20;99.90
13336;DHT22;6737;51.480;11.962;2023-05-09T01:57:04;9.20;99.90
13336;DHT22;6737;51.480;11.962;2023-05-09T01:59:32;9.20;99.90
13336;DHT22;6737;51.480;11.962;2023-05-09T02:01:59;9.00;99.90
13336;DHT22;6737;51.480;11.962;2023-05-09T02:04:27;9.00;99.90
13336;DHT22;6737;51.480;11.962;2023-05-09T02:06:54;9.00;99.90
13336;DHT22;6737;51.480;11.962;2023-05-09T02:09:21;9.00;99.90
13336;DHT22;6737;51.480;11.962;2023-05-09T02:11:47;9.00;99.90
13336;DHT22;6737;51.480;11.962;2023-05-09T02:14:13;8.90;99.90
13336;DHT22;6737;51.480;11.962;2023-05-09T02:16:40;8.80;99.90
13336;DHT22;6737;51.480;11.962;2023-05-09T02:19:06;8.90;99.90
13336;DHT22;6737;51.480;11.962;2023-05-09T02:21:32;8.70;99.90
13336;DHT22;6737;51.480;11.962;2023-05-09T02:23:57;8.70;99.90
13336;DHT22;6737;51.480;11.962;2023-05-09T02:26:24;8.70;99.90
13336;DHT22;6737;51.480;11.962;2023-05-09T02:28:51;8.60;99.90
13336;DHT22;6737;51.480;11.962;2023-05-09T02:31:19;8.50;99.90
13336;DHT22;6737;51.480;11.962;2023-05-09T02:33:47;8.50;99.90
13336;DHT22;6737;51.480;11.962;2023-05-09T02:36:15;8.50;99.90
13336;DHT22;6737;51.480;11.962;2023-05-09T02:38:42;8.50;99.90
13336;DHT22;6737;51.480;11.962;2023-05-09T02:41:15;8.60;99.90
13336;DHT22;6737;51.480;11.962;2023-05-09T02:43:40;8.60;99.90
13336;DHT22;6737;51.480;11.962;2023-05-09T02:46:07;8.50;99.90
13336;DHT22;6737;51.480;11.962;2023-05-09T02:48:33;8.50;99.90
13336;DHT22;6737;51.480;11.962;2023-05-09T02:50:58;8.60;99.90
13336;DHT22;6737;51.480;11.962;2023-05-09T02:53:24;8.60;99.90
13336;DHT22;6737;51.480;11.962;2023-05-09T02:55:50;8.60;99.90
13336;DHT22;6737;51.480;11.962;2023-05-09T02:58:19;8.60;99.90
13336;DHT22;6737;51.480;11.962;2023-05-09T03:00:45;8.60;99.90
13336;DHT22;6737;51.480;11.962;2023-05-09T03:03:11;8.60;99.90
13336;DHT22;6737;51.480;11.962;2023-05-09T03:05:37;8.60;99.90
13336;DHT22;6737;51.480;11.962;2023-05-09T03:08:03;8.50;99.90
13336;DHT22;6737;51.480;11.962;2023-05-09T03:10:29;8.50;99.90
13336;DHT22;6737;51.480;11.962;2023-05-09T03:12:55;8.40;99.90
13336;DHT22;6737;51.480;11.962;2023-05-09T03:15:21;8.30;99.90
13336;DHT22;6737;51.480;11.962;2023-05-09T03:17:46;8.30;99.90
13336;DHT22;6737;51.480;11.962;2023-05-09T03:20:12;8.30;99.90
13336;DHT22;6737;51.480;11.962;2023-05-09T03:22:38;8.30;99.90
13336;DHT22;6737;51.480;11.962;2023-05-09T03:25:04;8.30;99.90
13336;DHT22;6737;51.480;11.962;2023-05-09T03:27:31;8.30;99.90
13336;DHT22;6737;51.480;11.962;2023-05-09T03:29:57;8.30;99.90
13336;DHT22;6737;51.480;11.962;2023-05-09T03:32:22;8.30;99.90
13336;DHT22;6737;51.480;11.962;2023-05-09T03:34:48;8.10;99.90
13336;DHT22;6737;51.480;11.962;2023-05-09T03:37:14;8.20;99.90
13336;DHT22;6737;51.480;11.962;2023-05-09T03:39:40;8.20;99.90
13336;DHT22;6737;51.480;11.962;2023-05-09T03:42:05;8.10;99.90
13336;DHT22;6737;51.480;11.962;2023-05-09T03:44:31;8.10;99.90
13336;DHT22;6737;51.480;11.962;2023-05-09T03:46:57;8.10;99.90
13336;DHT22;6737;51.480;11.962;2023-05-09T03:49:23;8.10;99.90
13336;DHT22;6737;51.480;11.962;2023-05-09T03:51:49;8.10;99.90
13336;DHT22;6737;51.480;11.962;2023-05-09T03:54:14;8.10;99.90
13336;DHT22;6737;51.480;11.962;2023-05-09T03:56:40;8.10;99.90
13336;DHT22;6737;51.480;11.962;2023-05-09T03:59:06;8.10;99.90
13336;DHT22;6737;51.480;11.962;2023-05-09T04:01:32;8.10;99.90
13336;DHT22;6737;51.480;11.962;2023-05-09T04:03:58;8.10;99.90
13336;DHT22;6737;51.480;11.962;2023-05-09T04:06:24;8.10;99.90
13336;DHT22;6737;51.480;11.962;2023-05-09T04:08:50;8.10;99.90
13336;DHT22;6737;51.480;11.962;2023-05-09T04:11:16;8.20;99.90
13336;DHT22;6737;51.480;11.962;2023-05-09T04:13:42;8.20;99.90
13336;DHT22;6737;51.480;11.962;2023-05-09T04:16:08;8.20;99.90
13336;DHT22;6737;51.480;11.962;2023-05-09T04:18:34;8.20;99.90
13336;DHT22;6737;51.480;11.962;2023-05-09T04:21:01;8.20;99.90
13336;DHT22;6737;51.480;11.962;2023-05-09T04:23:26;8.20;99.90
13336;DHT22;6737;51.480;11.962;2023-05-09T04:25:52;8.10;99.90
13336;DHT22;6737;51.480;11.962;2023-05-09T04:28:19;8.10;99.90
13336;DHT22;6737;51.480;11.962;2023-05-09T04:30:44;8.20;99.90
13336;DHT22;6737;51.480;11.962;2023-05-09T04:33:10;8.30;99.90
13336;DHT22;6737;51.480;11.962;2023-05-09T04:35:37;8.40;99.90
13336;DHT22;6737;51.480;11.962;2023-05-09T04:38:03;8.40;99.90
13336;DHT22;6737;51.480;11.962;2023-05-09T04:40:29;8.50;99.90
13336;DHT22;6737;51.480;11.962;2023-05-09T04:42:55;8.50;99.90
13336;DHT22;6737;51.480;11.962;2023-05-09T04:45:22;8.60;99.90
13336;DHT22;6737;51.480;11.962;2023-05-09T04:47:48;8.60;99.90
13336;DHT22;6737;51.480;11.962;2023-05-09T04:50:13;8.70;99.90
13336;DHT22;6737;51.480;11.962;2023-05-09T04:52:39;8.70;99.90
13336;DHT22;6737;51.480;11.962;2023-05-09T04:55:05;8.80;99.90
13336;DHT22;6737;51.480;11.962;2023-05-09T04:57:31;8.80;99.90
13336;DHT22;6737;51.480;11.962;2023-05-09T04:59:57;8.80;99.90
13336;DHT22;6737;51.480;11.962;2023-05-09T05:02:23;8.80;99.90
13336;DHT22;6737;51.480;11.962;2023-05-09T05:04:50;8.90;99.90
13336;DHT22;6737;51.480;11.962;2023-05-09T05:07:16;8.90;99.90
13336;DHT22;6737;51.480;11.962;2023-05-09T05:09:42;8.90;99.90
13336;DHT22;6737;51.480;11.962;2023-05-09T05:12:08;9.00;99.90
13336;DHT22;6737;51.480;11.962;2023-05-09T05:14:34;9.00;99.90
13336;DHT22;6737;51.480;11.962;2023-05-09T05:16:59;9.00;99.90
13336;DHT22;6737;51.480;11.962;2023-05-09T05:19:25;9.10;99.90
13336;DHT22;6737;51.480;11.962;2023-05-09T05:21:51;9.10;99.90
13336;DHT22;6737;51.480;11.962;2023-05-09T05:24:17;9.20;99.90
13336;DHT22;6737;51.480;11.962;2023-05-09T05:26:43;9.20;99.90
13336;DHT22;6737;51.480;11.962;2023-05-09T05:29:09;9.20;99.90
13336;DHT22;6737;51.480;11.962;2023-05-09T05:31:34;9.30;99.90
13336;DHT22;6737;51.480;11.962;2023-05-09T05:34:00;9.40;99.90
13336;DHT22;6737;51.480;11.962;2023-05-09T05:36:26;9.40;99.90
13336;DHT22;6737;51.480;11.962;2023-05-09T05:38:52;9.50;99.90
13336;DHT22;6737;51.480;11.962;2023-05-09T05:41:18;9.50;99.90
13336;DHT22;6737;51.480;11.962;2023-05-09T05:43:43;9.60;99.90
13336;DHT22;6737;51.480;11.962;2023-05-09T05:46:09;9.60;99.90
13336;DHT22;6737;51.480;11.962;2023-05-09T05:48:35;9.80;99.90
13336;DHT22;6737;51.480;11.962;2023-05-09T05:51:01;9.80;99.90
13336;DHT22;6737;51.480;11.962;2023-05-09T05:53:26;9.90;99.90
13336;DHT22;6737;51.480;11.962;2023-05-09T05:55:52;10.00;99.90
13336;DHT22;6737;51.480;11.962;2023-05-09T05:58:18;10.10;99.90
13336;DHT22;6737;51.480;11.962;2023-05-09T06:00:44;10.20;99.90
13336;DHT22;6737;51.480;11.962;2023-05-09T06:03:10;10.20;99.90
13336;DHT22;6737;51.480;11.962;2023-05-09T06:05:42;10.30;99.90
13336;DHT22;6737;51.480;11.962;2023-05-09T06:08:08;10.40;99.90
13336;DHT22;6737;51.480;11.962;2023-05-09T06:10:34;10.40;99.90
13336;DHT22;6737;51.480;11.962;2023-05-09T06:13:00;10.50;99.90
13336;DHT22;6737;51.480;11.962;2023-05-09T06:15:26;10.60;99.90
13336;DHT22;6737;51.480;11.962;2023-05-09T06:17:53;10.60;99.90
13336;DHT22;6737;51.480;11.962;2023-05-09T06:20:19;10.70;99.90
13336;DHT22;6737;51.480;11.962;2023-05-09T06:22:44;10.80;99.90
13336;DHT22;6737;51.480;11.962;2023-05-09T06:25:10;10.90;99.90
13336;DHT22;6737;51.480;11.962;2023-05-09T06:27:37;11.00;99.90
13336;DHT22;6737;51.480;11.962;2023-05-09T06:30:03;11.00;99.90
13336;DHT22;6737;51.480;11.962;2023-05-09T06:32:29;11.10;99.90
13336;DHT22;6737;51.480;11.962;2023-05-09T06:34:54;11.20;99.90
13336;DHT22;6737;51.480;11.962;2023-05-09T06:37:20;11.30;99.90
13336;DHT22;6737;51.480;11.962;2023-05-09T06:39:46;11.40;99.90
13336;DHT22;6737;51.480;11.962;2023-05-09T06:42:12;11.50;99.90
13336;DHT22;6737;51.480;11.962;2023-05-09T06:44:38;11.60;99.90
13336;DHT22;6737;51.480;11.962;2023-05-09T06:47:03;11.70;99.90
13336;DHT22;6737;51.480;11.962;2023-05-09T06:49:29;11.80;99.90
13336;DHT22;6737;51.480;11.962;2023-05-09T06:51:55;11.90;99.90
13336;DHT22;6737;51.480;11.962;2023-05-09T06:54:21;12.00;99.90
13336;DHT22;6737;51.480;11.962;2023-05-09T06:56:47;12.10;99.90
13336;DHT22;6737;51.480;11.962;2023-05-09T06:59:12;12.20;99.90
13336;DHT22;6737;51.480;11.962;2023-05-09T07:01:40;12.20;99.90
13336;DHT22;6737;51.480;11.962;2023-05-09T07:04:06;12.30;99.90
13336;DHT22;6737;51.480;11.962;2023-05-09T07:06:32;12.40;99.90
13336;DHT22;6737;51.480;11.962;2023-05-09T07:08:58;12.50;99.90
13336;DHT22;6737;51.480;11.962;2023-05-09T07:11:24;12.60;99.90
13336;DHT22;6737;51.480;11.962;2023-05-09T07:13:50;12.80;99.90
13336;DHT22;6737;51.480;11.962;2023-05-09T07:16:15;12.80;99.90
13336;DHT22;6737;51.480;11.962;2023-05-09T07:18:43;12.90;99.90
13336;DHT22;6737;51.480;11.962;2023-05-09T07:21:09;13.00;99.90
13336;DHT22;6737;51.480;11.962;2023-05-09T07:23:34;13.10;99.90
13336;DHT22;6737;51.480;11.962;2023-05-09T07:26:00;13.20;99.90
13336;DHT22;6737;51.480;11.962;2023-05-09T07:28:26;13.30;99.90
13336;DHT22;6737;51.480;11.962;2023-05-09T07:30:54;13.40;99.90
13336;DHT22;6737;51.480;11.962;2023-05-09T07:33:21;13.50;99.90
13336;DHT22;6737;51.480;11.962;2023-05-09T07:35:47;13.50;99.90
13336;DHT22;6737;51.480;11.962;2023-05-09T07:38:13;13.60;99.90
13336;DHT22;6737;51.480;11.962;2023-05-09T07:40:39;13.70;99.90
13336;DHT22;6737;51.480;11.962;2023-05-09T07:43:05;13.80;99.90
13336;DHT22;6737;51.480;11.962;2023-05-09T07:45:31;13.90;99.90
13336;DHT22;6737;51.480;11.962;2023-05-09T07:47:58;14.00;99.90
13336;DHT22;6737;51.480;11.962;2023-05-09T07:50:24;14.10;99.90
13336;DHT22;6737;51.480;11.962;2023-05-09T07:52:49;14.10;99.90
13336;DHT22;6737;51.480;11.962;2023-05-09T07:55:16;14.10;99.90
13336;DHT22;6737;51.480;11.962;2023-05-09T07:57:42;14.20;99.90
13336;DHT22;6737;51.480;11.962;2023-05-09T08:00:08;14.30;99.90
13336;DHT22;6737;51.480;11.962;2023-05-09T08:02:35;14.40;99.90
13336;DHT22;6737;51.480;11.962;2023-05-09T08:05:01;14.50;99.90
13336;DHT22;6737;51.480;11.962;2023-05-09T08:07:26;14.60;99.90
13336;DHT22;6737;51.480;11.962;2023-05-09T08:09:52;14.60;99.90
13336;DHT22;6737;51.480;11.962;2023-05-09T08:12:18;14.80;99.90
13336;DHT22;6737;51.480;11.962;2023-05-09T08:14:44;14.70;99.90
13336;DHT22;6737;51.480;11.962;2023-05-09T08:17:09;14.80;99.90
13336;DHT22;6737;51.480;11.962;2023-05-09T08:19:35;14.80;99.90
13336;DHT22;6737;51.480;11.962;2023-05-09T08:22:01;15.00;99.90
13336;DHT22;6737;51.480;11.962;2023-05-09T08:24:27;15.00;99.90
13336;DHT22;6737;51.480;11.962;2023-05-09T08:26:54;15.10;99.90
13336;DHT22;6737;51.480;11.962;2023-05-09T08:29:19;15.20;99.90
13336;DHT22;6737;51.480;11.962;2023-05-09T08:31:45;15.30;99.90
13336;DHT22;6737;51.480;11.962;2023-05-09T08:34:11;15.30;99.90
13336;DHT22;6737;51.480;11.962;2023-05-09T08:36:37;15.40;99.90
13336;DHT22;6737;51.480;11.962;2023-05-09T08:39:03;15.40;99.90
13336;DHT22;6737;51.480;11.962;2023-05-09T08:41:32;15.50;99.90
13336;DHT22;6737;51.480;11.962;2023-05-09T08:44:00;15.50;99.90
13336;DHT22;6737;51.480;11.962;2023-05-09T08:46:35;15.60;99.90
13336;DHT22;6737;51.480;11.962;2023-05-09T08:49:04;15.70;99.90
13336;DHT22;6737;51.480;11.962;2023-05-09T08:51:32;15.70;99.90
13336;DHT22;6737;51.480;11.962;2023-05-09T08:53:59;15.80;99.90
13336;DHT22;6737;51.480;11.962;2023-05-09T08:56:25;15.80;99.90
13336;DHT22;6737;51.480;11.962;2023-05-09T08:58:52;15.90;99.90
13336;DHT22;6737;51.480;11.962;2023-05-09T09:01:19;15.90;99.90
13336;DHT22;6737;51.480;11.962;2023-05-09T09:03:45;16.00;99.90
13336;DHT22;6737;51.480;11.962;2023-05-09T09:06:15;16.10;99.90
13336;DHT22;6737;51.480;11.962;2023-05-09T09:08:43;16.20;99.90
13336;DHT22;6737;51.480;11.962;2023-05-09T09:11:12;16.10;99.90
13336;DHT22;6737;51.480;11.962;2023-05-09T09:13:40;16.20;99.90
13336;DHT22;6737;51.480;11.962;2023-05-09T09:16:10;16.30;99.90
13336;DHT22;6737;51.480;11.962;2023-05-09T09:18:37;16.40;99.90
13336;DHT22;6737;51.480;11.962;2023-05-09T09:21:09;16.50;99.90
13336;DHT22;6737;51.480;11.962;2023-05-09T09:23:38;16.50;99.90
13336;DHT22;6737;51.480;11.962;2023-05-09T09:26:05;16.60;99.90
13336;DHT22;6737;51.480;11.962;2023-05-09T09:28:31;16.60;99.90
13336;DHT22;6737;51.480;11.962;2023-05-09T09:30:57;16.60;99.90
13336;DHT22;6737;51.480;11.962;2023-05-09T09:33:27;16.80;99.90
13336;DHT22;6737;51.480;11.962;2023-05-09T09:35:55;16.90;99.90
13336;DHT22;6737;51.480;11.962;2023-05-09T09:38:22;17.00;99.90
13336;DHT22;6737;51.480;11.962;2023-05-09T09:43:17;17.20;99.90
13336;DHT22;6737;51.480;11.962;2023-05-09T09:45:48;17.30;99.90
13336;DHT22;6737;51.480;11.962;2023-05-09T09:48:15;17.40;99.90
13336;DHT22;6737;51.480;11.962;2023-05-09T09:50:40;17.50;99.90
13336;DHT22;6737;51.480;11.962;2023-05-09T09:53:06;17.50;99.90
13336;DHT22;6737;51.480;11.962;2023-05-09T09:55:34;17.60;99.90
13336;DHT22;6737;51.480;11.962;2023-05-09T09:58:00;17.80;99.90
13336;DHT22;6737;51.480;11.962;2023-05-09T10:00:27;17.90;99.90
13336;DHT22;6737;51.480;11.962;2023-05-09T10:02:55;18.00;99.90
13336;DHT22;6737;51.480;11.962;2023-05-09T10:05:28;18.10;99.90
13336;DHT22;6737;51.480;11.962;2023-05-09T10:07:59;18.20;99.90
13336;DHT22;6737;51.480;11.962;2023-05-09T10:10:30;18.00;99.20
13336;DHT22;6737;51.480;11.962;2023-05-09T10:12:58;18.10;99.10
13336;DHT22;6737;51.480;11.962;2023-05-09T10:15:25;18.10;99.90
13336;DHT22;6737;51.480;11.962;2023-05-09T10:17:57;18.20;99.90
13336;DHT22;6737;51.480;11.962;2023-05-09T10:20:24;18.30;99.90
13336;DHT22;6737;51.480;11.962;2023-05-09T10:22:54;18.40;99.90
13336;DHT22;6737;51.480;11.962;2023-05-09T10:25:24;18.60;99.90
13336;DHT22;6737;51.480;11.962;2023-05-09T10:27:53;18.50;99.90
13336;DHT22;6737;51.480;11.962;2023-05-09T10:30:36;18.50;99.50
13336;DHT22;6737;51.480;11.962;2023-05-09T10:33:09;18.60;99.00
13336;DHT22;6737;51.480;11.962;2023-05-09T10:35:40;18.60;98.70
13336;DHT22;6737;51.480;11.962;2023-05-09T10:38:08;18.60;98.60
13336;DHT22;6737;51.480;11.962;2023-05-09T10:40:37;18.70;99.10
13336;DHT22;6737;51.480;11.962;2023-05-09T10:43:05;18.90;98.20
13336;DHT22;6737;51.480;11.962;2023-05-09T10:45:33;18.80;98.90
13336;DHT22;6737;51.480;11.962;2023-05-09T10:47:59;18.90;98.10
13336;DHT22;6737;51.480;11.962;2023-05-09T10:50:27;19.00;97.50
13336;DHT22;6737;51.480;11.962;2023-05-09T10:53:19;18.90;96.80
13336;DHT22;6737;51.480;11.962;2023-05-09T10:55:53;19.00;97.60
13336;DHT22;6737;51.480;11.962;2023-05-09T10:58:30;19.00;97.30
13336;DHT22;6737;51.480;11.962;2023-05-09T11:01:02;19.10;98.60
13336;DHT22;6737;51.480;11.962;2023-05-09T11:03:51;19.20;96.50
13336;DHT22;6737;51.480;11.962;2023-05-09T11:06:48;19.20;96.80
13336;DHT22;6737;51.480;11.962;2023-05-09T11:09:35;19.20;97.10
13336;DHT22;6737;51.480;11.962;2023-05-09T11:12:15;19.20;97.80
13336;DHT22;6737;51.480;11.962;2023-05-09T11:14:48;19.30;98.00
13336;DHT22;6737;51.480;11.962;2023-05-09T11:22:18;19.40;97.80
13336;DHT22;6737;51.480;11.962;2023-05-09T11:24:58;19.40;97.80
13336;DHT22;6737;51.480;11.962;2023-05-09T11:27:26;19.50;97.00
13336;DHT22;6737;51.480;11.962;2023-05-09T11:29:57;19.50;97.70
13336;DHT22;6737;51.480;11.962;2023-05-09T11:32:29;19.60;97.20
13336;DHT22;6737;51.480;11.962;2023-05-09T11:35:18;19.50;97.10
13336;DHT22;6737;51.480;11.962;2023-05-09T11:40:16;19.60;97.60
13336;DHT22;6737;51.480;11.962;2023-05-09T11:42:46;19.60;96.80
13336;DHT22;6737;51.480;11.962;2023-05-09T11:45:13;19.60;97.60
13336;DHT22;6737;51.480;11.962;2023-05-09T11:47:39;19.60;96.90
13336;DHT22;6737;51.480;11.962;2023-05-09T11:50:10;19.60;96.00
13336;DHT22;6737;51.480;11.962;2023-05-09T11:52:37;19.50;97.00
13336;DHT22;6737;51.480;11.962;2023-05-09T11:55:07;19.50;96.30
13336;DHT22;6737;51.480;11.962;2023-05-09T11:57:35;19.50;96.40
13336;DHT22;6737;51.480;11.962;2023-05-09T12:00:01;19.60;97.00
13336;DHT22;6737;51.480;11.962;2023-05-09T12:02:29;19.60;96.90
13336;DHT22;6737;51.480;11.962;2023-05-09T12:04:55;19.60;97.40
13336;DHT22;6737;51.480;11.962;2023-05-09T12:07:21;19.60;97.00
13336;DHT22;6737;51.480;11.962;2023-05-09T12:09:48;19.60;96.90
13336;DHT22;6737;51.480;11.962;2023-05-09T12:12:14;19.70;97.40
13336;DHT22;6737;51.480;11.962;2023-05-09T12:14:45;19.70;96.40
13336;DHT22;6737;51.480;11.962;2023-05-09T12:17:12;19.70;97.80
13336;DHT22;6737;51.480;11.962;2023-05-09T12:19:38;19.70;97.20
13336;DHT22;6737;51.480;11.962;2023-05-09T12:22:04;19.80;97.10
13336;DHT22;6737;51.480;11.962;2023-05-09T12:24:34;19.80;96.40
13336;DHT22;6737;51.480;11.962;2023-05-09T12:27:01;19.70;95.80
13336;DHT22;6737;51.480;11.962;2023-05-09T12:29:27;19.60;96.10
13336;DHT22;6737;51.480;11.962;2023-05-09T12:31:55;19.60;97.00
13336;DHT22;6737;51.480;11.962;2023-05-09T12:34:22;19.60;96.30
13336;DHT22;6737;51.480;11.962;2023-05-09T12:36:49;19.70;97.10
13336;DHT22;6737;51.480;11.962;2023-05-09T12:39:18;19.70;96.10
13336;DHT22;6737;51.480;11.962;2023-05-09T12:41:50;19.70;96.40
13336;DHT22;6737;51.480;11.962;2023-05-09T12:44:20;19.70;96.40
13336;DHT22;6737;51.480;11.962;2023-05-09T12:47:16;19.70;96.70
13336;DHT22;6737;51.480;11.962;2023-05-09T12:49:42;19.70;96.50
13336;DHT22;6737;51.480;11.962;2023-05-09T12:52:16;19.70;97.30
13336;DHT22;6737;51.480;11.962;2023-05-09T12:54:47;19.70;97.20
13336;DHT22;6737;51.480;11.962;2023-05-09T12:57:21;19.80;96.00
13336;DHT22;6737;51.480;11.962;2023-05-09T12:59:47;19.80;96.30
13336;DHT22;6737;51.480;11.962;2023-05-09T13:02:13;19.70;95.80
13336;DHT22;6737;51.480;11.962;2023-05-09T13:04:39;19.60;95.40
13336;DHT22;6737;51.480;11.962;2023-05-09T13:07:09;19.60;96.50
13336;DHT22;6737;51.480;11.962;2023-05-09T13:09:35;19.60;95.50
13336;DHT22;6737;51.480;11.962;2023-05-09T13:12:02;19.60;96.60
13336;DHT22;6737;51.480;11.962;2023-05-09T13:14:29;19.70;95.20
13336;DHT22;6737;51.480;11.962;2023-05-09T13:16:55;19.60;95.90
13336;DHT22;6737;51.480;11.962;2023-05-09T13:19:21;19.70;94.50
13336;DHT22;6737;51.480;11.962;2023-05-09T13:21:47;19.80;95.50
13336;DHT22;6737;51.480;11.962;2023-05-09T13:24:12;19.80;96.10
13336;DHT22;6737;51.480;11.962;2023-05-09T13:26:38;19.80;95.20
13336;DHT22;6737;51.480;11.962;2023-05-09T13:29:04;19.80;94.90
13336;DHT22;6737;51.480;11.962;2023-05-09T13:31:30;19.70;94.70
13336;DHT22;6737;51.480;11.962;2023-05-09T13:33:56;19.80;94.10
13336;DHT22;6737;51.480;11.962;2023-05-09T13:36:22;19.70;94.60
13336;DHT22;6737;51.480;11.962;2023-05-09T13:38:48;19.70;94.90
13336;DHT22;6737;51.480;11.962;2023-05-09T13:41:13;19.80;95.10
13336;DHT22;6737;51.480;11.962;2023-05-09T13:43:44;19.80;95.50
13336;DHT22;6737;51.480;11.962;2023-05-09T13:46:10;19.80;94.40
13336;DHT22;6737;51.480;11.962;2023-05-09T13:48:36;19.70;94.60
13336;DHT22;6737;51.480;11.962;2023-05-09T13:51:02;19.80;95.50
13336;DHT22;6737;51.480;11.962;2023-05-09T13:53:30;19.80;95.50
13336;DHT22;6737;51.480;11.962;2023-05-09T13:55:56;19.80;95.10
13336;DHT22;6737;51.480;11.962;2023-05-09T13:58:22;19.80;95.00
13336;DHT22;6737;51.480;11.962;2023-05-09T14:00:48;19.80;94.90
13336;DHT22;6737;51.480;11.962;2023-05-09T14:03:14;19.80;96.10
13336;DHT22;6737;51.480;11.962;2023-05-09T14:05:40;19.80;94.50
13336;DHT22;6737;51.480;11.962;2023-05-09T14:08:07;19.80;94.20
13336;DHT22;6737;51.480;11.962;2023-05-09T14:10:33;19.80;94.20
13336;DHT22;6737;51.480;11.962;2023-05-09T14:12:58;19.80;93.90
13336;DHT22;6737;51.480;11.962;2023-05-09T14:15:25;19.80;93.90
13336;DHT22;6737;51.480;11.962;2023-05-09T14:17:51;19.80;93.30
13336;DHT22;6737;51.480;11.962;2023-05-09T14:20:17;19.80;94.20
13336;DHT22;6737;51.480;11.962;2023-05-09T14:22:43;19.80;93.80
13336;DHT22;6737;51.480;11.962;2023-05-09T14:25:09;19.80;94.00
13336;DHT22;6737;51.480;11.962;2023-05-09T14:27:34;19.80;93.00
13336;DHT22;6737;51.480;11.962;2023-05-09T14:30:03;19.80;93.70
13336;DHT22;6737;51.480;11.962;2023-05-09T14:32:29;19.90;94.20
13336;DHT22;6737;51.480;11.962;2023-05-09T14:34:55;19.80;93.80
13336;DHT22;6737;51.480;11.962;2023-05-09T14:37:21;19.80;94.20
13336;DHT22;6737;51.480;11.962;2023-05-09T14:39:47;19.70;91.90
13336;DHT22;6737;51.480;11.962;2023-05-09T14:42:14;19.80;91.60
13336;DHT22;6737;51.480;11.962;2023-05-09T14:44:41;19.80;91.60
13336;DHT22;6737;51.480;11.962;2023-05-09T14:47:08;19.80;90.60
13336;DHT22;6737;51.480;11.962;2023-05-09T14:49:34;19.80;90.20
13336;DHT22;6737;51.480;11.962;2023-05-09T14:52:00;19.80;91.00
13336;DHT22;6737;51.480;11.962;2023-05-09T14:54:26;19.80;90.20
13336;DHT22;6737;51.480;11.962;2023-05-09T14:56:52;19.80;90.90
13336;DHT22;6737;51.480;11.962;2023-05-09T14:59:18;19.80;89.70
13336;DHT22;6737;51.480;11.962;2023-05-09T15:01:44;19.90;86.60
13336;DHT22;6737;51.480;11.962;2023-05-09T15:04:12;19.90;87.10
13336;DHT22;6737;51.480;11.962;2023-05-09T15:06:39;19.80;86.80
13336;DHT22;6737;51.480;11.962;2023-05-09T15:09:05;19.90;90.10
13336;DHT22;6737;51.480;11.962;2023-05-09T15:11:31;19.90;89.60
13336;DHT22;6737;51.480;11.962;2023-05-09T15:13:57;19.90;87.90
13336;DHT22;6737;51.480;11.962;2023-05-09T15:16:23;19.90;88.20
13336;DHT22;6737;51.480;11.962;2023-05-09T15:18:49;19.90;86.90
13336;DHT22;6737;51.480;11.962;2023-05-09T15:21:15;19.80;88.70
13336;DHT22;6737;51.480;11.962;2023-05-09T15:23:40;19.90;87.00
13336;DHT22;6737;51.480;11.962;2023-05-09T15:26:07;19.90;87.20
13336;DHT22;6737;51.480;11.962;2023-05-09T15:28:34;19.90;87.00
13336;DHT22;6737;51.480;11.962;2023-05-09T15:31:00;19.80;86.20
13336;DHT22;6737;51.480;11.962;2023-05-09T15:33:27;19.80;88.90
13336;DHT22;6737;51.480;11.962;2023-05-09T15:35:57;19.80;86.00
13336;DHT22;6737;51.480;11.962;2023-05-09T15:38:25;19.80;86.20
13336;DHT22;6737;51.480;11.962;2023-05-09T15:40:51;19.80;85.40
13336;DHT22;6737;51.480;11.962;2023-05-09T15:43:17;19.80;86.10
13336;DHT22;6737;51.480;11.962;2023-05-09T15:45:43;19.80;88.80
13336;DHT22;6737;51.480;11.962;2023-05-09T15:48:12;19.80;84.70
13336;DHT22;6737;51.480;11.962;2023-05-09T15:50:38;19.70;85.60
13336;DHT22;6737;51.480;11.962;2023-05-09T15:53:05;19.70;83.80
13336;DHT22;6737;51.480;11.962;2023-05-09T15:55:31;19.60;84.50
13336;DHT22;6737;51.480;11.962;2023-05-09T15:57:57;19.60;86.10